createdAt,value
2023-04-17T00:00:19.917Z,12.20
2023-04-17T00:02:48.088Z,15.13
2023-04-17T00:05:17.717Z,12.57
2023-04-17T00:07:46.600Z,14.93
2023-04-17T00:10:14.659Z,13.60
2023-04-17T00:12:42.740Z,14.10
2023-04-17T00:15:11.469Z,11.70
2023-04-17T00:17:39.586Z,14.40
2023-04-17T00:20:10.050Z,12.60
2023-04-17T00:22:39.963Z,12.50
2023-04-17T00:25:10.422Z,13.27
2023-04-17T00:27:38.466Z,13.90
2023-04-17T00:30:08.081Z,12.50
2023-04-17T00:32:36.185Z,13.10
2023-04-17T00:35:04.212Z,14.90
2023-04-17T00:37:32.271Z,12.23
2023-04-17T00:40:01.661Z,12.23
2023-04-17T00:42:29.767Z,12.07
2023-04-17T00:44:57.798Z,11.53
2023-04-17T00:47:26.492Z,12.40
2023-04-17T00:49:54.785Z,12.57
2023-04-17T00:52:29.924Z,11.43
2023-04-17T00:55:00.964Z,11.20
2023-04-17T00:57:29.302Z,12.20
2023-04-17T00:59:58.616Z,11.57
2023-04-17T01:02:27.213Z,13.10
2023-04-17T01:04:55.709Z,13.00
2023-04-17T01:07:23.882Z,12.00
2023-04-17T01:09:52.065Z,12.13
2023-04-17T01:12:23.481Z,12.60
2023-04-17T01:14:52.097Z,11.50
2023-04-17T01:17:20.630Z,11.57
2023-04-17T01:19:50.941Z,11.23
2023-04-17T01:22:20.564Z,12.40
2023-04-17T01:24:52.871Z,10.67
2023-04-17T01:27:22.722Z,11.33
2023-04-17T01:29:50.899Z,10.73
2023-04-17T01:32:20.129Z,11.83
2023-04-17T01:34:48.307Z,10.80
2023-04-17T01:37:16.361Z,11.50
2023-04-17T01:39:44.483Z,11.07
2023-04-17T01:42:13.899Z,11.63
2023-04-17T01:44:42.103Z,10.33
2023-04-17T01:47:10.899Z,9.87
2023-04-17T01:49:39.182Z,9.90
2023-04-17T01:52:07.813Z,10.60
2023-04-17T01:54:35.939Z,10.03
2023-04-17T01:57:03.955Z,9.80
2023-04-17T01:59:33.857Z,10.07
2023-04-17T02:02:01.955Z,10.67
2023-04-17T02:04:30.228Z,10.50
2023-04-17T02:06:58.386Z,10.37
2023-04-17T02:09:27.182Z,10.40
2023-04-17T02:11:56.270Z,10.77
2023-04-17T02:14:24.291Z,10.00
2023-04-17T02:16:53.734Z,10.70
2023-04-17T02:19:22.862Z,9.77
2023-04-17T02:21:51.095Z,10.53
2023-04-17T02:24:19.116Z,10.40
2023-04-17T02:26:47.257Z,11.40
2023-04-17T02:29:15.367Z,11.10
2023-04-17T02:31:43.575Z,10.63
2023-04-17T02:34:14.015Z,10.37
2023-04-17T02:36:42.440Z,11.13
2023-04-17T02:39:11.123Z,11.17
2023-04-17T02:41:41.004Z,12.30
2023-04-17T02:44:10.336Z,11.20
2023-04-17T02:46:39.064Z,10.60
2023-04-17T02:49:08.583Z,11.70
2023-04-17T02:51:38.783Z,12.13
2023-04-17T02:54:06.969Z,11.73
2023-04-17T02:56:35.054Z,11.30
2023-04-17T02:59:03.314Z,11.80
2023-04-17T03:01:31.742Z,10.90
2023-04-17T03:04:00.118Z,11.77
2023-04-17T03:06:28.574Z,9.97
2023-04-17T03:08:58.004Z,10.60
2023-04-17T03:11:26.339Z,12.30
2023-04-17T03:13:54.474Z,11.47
2023-04-17T03:16:23.524Z,10.93
2023-04-17T03:18:51.677Z,10.37
2023-04-17T03:21:19.716Z,10.27
2023-04-17T03:23:47.706Z,10.77
2023-04-17T03:26:17.259Z,10.67
2023-04-17T03:28:45.502Z,11.00
2023-04-17T03:31:14.657Z,10.30
2023-04-17T03:33:42.922Z,10.80
2023-04-17T03:36:11.459Z,11.20
2023-04-17T03:38:39.750Z,12.67
2023-04-17T03:41:10.226Z,10.97
2023-04-17T03:43:39.887Z,10.93
2023-04-17T03:46:10.457Z,12.17
2023-04-17T03:48:39.818Z,11.93
2023-04-17T03:51:07.930Z,11.70
2023-04-17T03:53:37.029Z,12.20
2023-04-17T03:56:09.190Z,10.80
2023-04-17T03:58:41.502Z,10.50
2023-04-17T04:01:12.564Z,11.27
2023-04-17T04:03:51.512Z,10.70
2023-04-17T04:06:20.381Z,11.40
2023-04-17T04:08:49.663Z,10.77
2023-04-17T04:11:18.346Z,11.27
2023-04-17T04:13:47.898Z,11.20
2023-04-17T04:16:16.073Z,11.50
2023-04-17T04:18:45.251Z,12.87
2023-04-17T04:21:17.419Z,12.27
2023-04-17T04:23:46.158Z,12.07
2023-04-17T04:26:18.462Z,12.50
2023-04-17T04:28:53.963Z,12.50
2023-04-17T04:31:30.611Z,11.67
2023-04-17T04:34:01.255Z,13.13
2023-04-17T04:36:30.345Z,13.73
2023-04-17T04:39:22.952Z,14.33
2023-04-17T04:41:52.502Z,12.27
2023-04-17T04:44:25.459Z,14.30
2023-04-17T04:46:57.600Z,13.90
2023-04-17T04:49:26.966Z,13.90
2023-04-17T04:51:55.154Z,13.90
2023-04-17T04:54:29.330Z,12.13
2023-04-17T04:57:00.636Z,11.87
2023-04-17T04:59:31.130Z,13.93
2023-04-17T05:02:15.892Z,11.50
2023-04-17T05:04:45.056Z,12.27
2023-04-17T05:07:13.255Z,13.27
2023-04-17T05:09:45.003Z,12.07
2023-04-17T05:12:14.613Z,14.13
2023-04-17T05:14:44.051Z,13.57
2023-04-17T05:17:12.366Z,14.13
2023-04-17T05:19:40.474Z,14.03
2023-04-17T05:22:10.888Z,13.97
2023-04-17T05:24:49.610Z,12.97
2023-04-17T05:27:18.519Z,14.20
2023-04-17T05:29:48.081Z,14.30
2023-04-17T05:32:16.132Z,39.90
2023-04-17T05:34:54.898Z,20.67
2023-04-17T05:37:26.988Z,15.10
2023-04-17T05:39:56.497Z,13.83
2023-04-17T05:42:24.553Z,12.60
2023-04-17T05:44:54.056Z,12.90
2023-04-17T05:47:22.132Z,11.53
2023-04-17T05:49:51.478Z,13.07
2023-04-17T05:52:19.621Z,12.90
2023-04-17T05:54:47.999Z,13.33
2023-04-17T05:57:16.182Z,12.40
2023-04-17T05:59:44.640Z,12.30
2023-04-17T06:02:14.705Z,13.43
2023-04-17T06:04:43.145Z,14.40
2023-04-17T06:07:11.834Z,12.67
2023-04-17T06:09:41.094Z,13.03
2023-04-17T06:12:15.718Z,13.40
2023-04-17T06:14:44.927Z,13.23
2023-04-17T06:17:14.620Z,13.00
2023-04-17T06:19:43.235Z,12.57
2023-04-17T06:22:11.291Z,14.20
2023-04-17T06:24:39.318Z,13.83
2023-04-17T06:27:07.328Z,13.63
2023-04-17T06:29:35.372Z,13.87
2023-04-17T06:32:04.214Z,15.13
2023-04-17T06:34:33.896Z,15.80
2023-04-17T06:37:01.970Z,15.10
2023-04-17T06:39:31.709Z,15.87
2023-04-17T06:42:01.676Z,13.73
2023-04-17T06:44:29.755Z,13.13
2023-04-17T06:46:59.963Z,12.00
2023-04-17T06:49:29.997Z,13.80
2023-04-17T06:51:59.442Z,12.90
2023-04-17T06:54:27.770Z,13.33
2023-04-17T06:56:56.695Z,11.80
2023-04-17T06:59:25.041Z,12.70
2023-04-17T07:01:53.120Z,11.83
2023-04-17T07:04:21.843Z,13.97
2023-04-17T07:06:50.023Z,12.53
2023-04-17T07:09:19.499Z,15.30
2023-04-17T07:11:47.663Z,15.63
2023-04-17T07:14:15.842Z,15.40
2023-04-17T07:16:43.966Z,13.97
2023-04-17T07:19:12.151Z,14.03
2023-04-17T07:21:40.480Z,13.80
2023-04-17T07:24:08.731Z,13.83
2023-04-17T07:26:38.801Z,13.57
2023-04-17T07:29:07.004Z,13.50
2023-04-17T07:31:35.330Z,14.53
2023-04-17T07:34:04.453Z,14.67
2023-04-17T07:36:32.483Z,14.37
2023-04-17T07:39:00.537Z,13.33
2023-04-17T07:41:28.503Z,14.57
2023-04-17T07:43:59.175Z,13.10
2023-04-17T07:46:27.396Z,13.50
2023-04-17T07:48:55.479Z,13.53
2023-04-17T07:51:23.584Z,13.70
2023-04-17T07:53:51.589Z,13.20
2023-04-17T07:56:19.610Z,13.57
2023-04-17T07:58:51.777Z,13.70
2023-04-17T08:01:21.227Z,14.30
2023-04-17T08:03:49.563Z,12.97
2023-04-17T08:06:17.771Z,13.40
2023-04-17T08:08:47.547Z,13.00
2023-04-17T08:11:15.728Z,14.40
2023-04-17T08:13:43.829Z,13.80
2023-04-17T08:16:12.236Z,15.80
2023-04-17T08:18:42.223Z,14.90
2023-04-17T08:21:10.736Z,13.83
2023-04-17T08:23:38.880Z,14.07
2023-04-17T08:26:06.927Z,13.43
2023-04-17T08:28:34.951Z,13.33
2023-04-17T08:31:03.353Z,13.70
2023-04-17T08:33:31.774Z,12.43
2023-04-17T08:36:03.352Z,13.33
2023-04-17T08:38:32.177Z,13.33
2023-04-17T08:41:05.680Z,13.40
2023-04-17T08:43:36.935Z,13.07
2023-04-17T08:46:05.858Z,13.47
2023-04-17T08:48:34.029Z,13.83
2023-04-17T08:51:03.585Z,12.93
2023-04-17T08:53:31.650Z,14.23
2023-04-17T08:56:06.876Z,14.27
2023-04-17T08:58:36.983Z,12.83
2023-04-17T09:01:11.849Z,13.30
2023-04-17T09:03:44.481Z,14.10
2023-04-17T09:06:15.424Z,14.37
2023-04-17T09:08:56.678Z,13.30
2023-04-17T09:11:25.016Z,13.10
2023-04-17T09:13:53.554Z,13.53
2023-04-17T09:16:21.888Z,13.53
2023-04-17T09:18:50.354Z,14.40
2023-04-17T09:21:20.157Z,13.97
2023-04-17T09:23:50.616Z,12.20
2023-04-17T09:26:20.181Z,14.73
2023-04-17T09:29:07.675Z,12.87
2023-04-17T09:31:37.490Z,11.80
2023-04-17T09:34:07.575Z,12.20
2023-04-17T09:36:38.471Z,12.73
2023-04-17T09:39:18.080Z,12.50
2023-04-17T09:41:46.474Z,12.73
2023-04-17T09:44:26.721Z,13.43
2023-04-17T09:46:55.624Z,12.90
2023-04-17T09:49:32.109Z,12.53
2023-04-17T09:52:01.650Z,12.97
2023-04-17T09:54:31.538Z,12.27
2023-04-17T09:57:02.726Z,12.70
2023-04-17T09:59:31.532Z,13.13
2023-04-17T10:01:59.996Z,12.70
2023-04-17T10:04:29.450Z,12.93
2023-04-17T10:06:58.086Z,11.90
2023-04-17T10:09:27.513Z,12.70
2023-04-17T10:11:56.935Z,13.10
2023-04-17T10:14:27.479Z,11.90
2023-04-17T10:16:55.732Z,12.33
2023-04-17T10:19:29.570Z,12.20
2023-04-17T10:22:29.780Z,11.20
2023-04-17T10:25:20.728Z,12.30
2023-04-17T10:27:51.827Z,11.00
2023-04-17T10:30:22.250Z,11.80
2023-04-17T10:33:21.881Z,11.57
2023-04-17T10:35:50.529Z,10.73
2023-04-17T10:38:32.585Z,10.83
2023-04-17T10:41:05.228Z,10.73
2023-04-17T10:43:33.349Z,10.23
2023-04-17T10:46:06.842Z,10.83
2023-04-17T10:48:38.380Z,9.50
2023-04-17T10:51:40.687Z,10.20
2023-04-17T10:54:10.460Z,8.70
2023-04-17T10:56:42.420Z,10.10
2023-04-17T10:59:11.862Z,9.70
2023-04-17T11:01:57.974Z,9.70
2023-04-17T11:04:28.623Z,10.47
2023-04-17T11:06:56.909Z,9.80
2023-04-17T11:09:26.639Z,9.67
2023-04-17T11:11:59.157Z,9.90
2023-04-17T11:14:27.534Z,9.50
2023-04-17T11:16:56.680Z,12.97
2023-04-17T11:19:26.270Z,10.50
2023-04-17T11:21:57.314Z,10.30
2023-04-17T11:24:25.994Z,11.70
2023-04-17T11:26:56.225Z,11.73
2023-04-17T11:29:25.347Z,11.57
2023-04-17T11:31:54.998Z,11.50
2023-04-17T11:34:23.627Z,12.67
2023-04-17T11:36:51.950Z,12.83
2023-04-17T11:39:20.681Z,12.27
2023-04-17T11:41:50.105Z,13.20
2023-04-17T11:44:21.195Z,12.70
2023-04-17T11:46:51.264Z,13.77
2023-04-17T11:49:25.961Z,14.47
2023-04-17T11:51:54.227Z,13.20
2023-04-17T11:54:26.539Z,12.90
2023-04-17T11:57:04.440Z,12.90
2023-04-17T11:59:35.073Z,13.13
2023-04-17T12:02:03.774Z,13.10
2023-04-17T12:04:34.209Z,12.23
2023-04-17T12:07:03.152Z,11.80
2023-04-17T12:09:32.533Z,12.00
2023-04-17T12:12:01.313Z,12.23
2023-04-17T12:14:29.633Z,10.23
2023-04-17T12:16:59.134Z,10.13
2023-04-17T12:19:29.357Z,9.70
2023-04-17T12:21:59.167Z,9.10
2023-04-17T12:24:27.386Z,8.07
2023-04-17T12:26:56.173Z,8.67
2023-04-17T12:29:40.596Z,6.80
2023-04-17T12:32:12.519Z,7.67
2023-04-17T12:34:40.879Z,7.20
2023-04-17T12:37:08.945Z,5.30
2023-04-17T12:39:37.026Z,7.87
2023-04-17T12:42:05.421Z,8.47
2023-04-17T12:44:33.385Z,9.43
2023-04-17T12:47:01.394Z,9.97
2023-04-17T12:49:30.837Z,8.23
2023-04-17T12:52:00.952Z,10.00
2023-04-17T12:54:30.600Z,9.40
2023-04-17T12:56:58.731Z,8.10
2023-04-17T12:59:26.720Z,8.63
2023-04-17T13:01:54.860Z,8.40
2023-04-17T13:04:23.061Z,9.73
2023-04-17T13:06:52.785Z,7.70
2023-04-17T13:09:21.096Z,7.00
2023-04-17T13:11:50.190Z,6.20
2023-04-17T13:14:18.178Z,6.50
2023-04-17T13:16:46.711Z,6.23
2023-04-17T13:19:15.034Z,6.10
2023-04-17T13:21:43.456Z,5.50
2023-04-17T13:24:14.755Z,5.80
2023-04-17T13:26:42.915Z,5.40
2023-04-17T13:29:11.504Z,5.40
2023-04-17T13:31:39.662Z,5.70
2023-04-17T13:34:08.167Z,6.20
2023-04-17T13:36:36.226Z,8.73
2023-04-17T13:39:05.225Z,6.80
2023-04-17T13:41:34.719Z,4.83
2023-04-17T13:44:02.830Z,6.23
2023-04-17T13:46:31.937Z,4.80
2023-04-17T13:49:00.051Z,5.00
2023-04-17T13:51:28.437Z,4.37
2023-04-17T13:53:58.729Z,4.30
2023-04-17T13:56:27.893Z,4.10
2023-04-17T13:58:57.522Z,4.43
2023-04-17T14:01:25.754Z,3.47
2023-04-17T14:03:54.149Z,3.93
2023-04-17T14:06:22.290Z,5.00
2023-04-17T14:08:50.306Z,5.07
2023-04-17T14:11:19.285Z,4.03
2023-04-17T14:13:47.261Z,4.90
2023-04-17T14:16:18.713Z,4.53
2023-04-17T14:18:49.147Z,4.07
2023-04-17T14:21:17.936Z,3.67
2023-04-17T14:23:46.456Z,3.70
2023-04-17T14:26:14.546Z,3.07
2023-04-17T14:28:42.584Z,3.70
2023-04-17T14:31:10.724Z,3.63
2023-04-17T14:33:40.145Z,4.10
2023-04-17T14:36:09.176Z,3.27
2023-04-17T14:38:37.329Z,3.63
2023-04-17T14:41:05.488Z,4.07
2023-04-17T14:43:33.608Z,3.80
2023-04-17T14:46:02.226Z,3.53
2023-04-17T14:48:31.344Z,3.97
2023-04-17T14:51:02.226Z,3.73
2023-04-17T14:53:30.311Z,3.83
2023-04-17T14:55:59.172Z,4.13
2023-04-17T14:58:27.243Z,4.40
2023-04-17T15:00:55.393Z,5.10
2023-04-17T15:03:23.642Z,4.67
2023-04-17T15:05:52.389Z,5.23
2023-04-17T15:08:21.758Z,4.07
2023-04-17T15:10:51.620Z,3.53
2023-04-17T15:13:19.908Z,2.93
2023-04-17T15:15:48.322Z,2.97
2023-04-17T15:18:16.671Z,2.77
2023-04-17T15:20:45.335Z,3.10
2023-04-17T15:23:13.346Z,2.80
2023-04-17T15:25:42.825Z,2.93
2023-04-17T15:28:13.346Z,2.90
2023-04-17T15:30:41.463Z,2.47
2023-04-17T15:33:10.360Z,3.47
2023-04-17T15:35:39.398Z,4.90
2023-04-17T15:38:07.861Z,3.00
2023-04-17T15:40:35.944Z,3.10
2023-04-17T15:43:05.382Z,3.47
2023-04-17T15:45:33.846Z,3.13
2023-04-17T15:48:02.110Z,2.53
2023-04-17T15:50:30.447Z,2.43
2023-04-17T15:52:58.556Z,2.67
2023-04-17T15:55:26.580Z,2.30
2023-04-17T15:57:54.655Z,2.67
2023-04-17T16:00:24.032Z,2.50
2023-04-17T16:02:52.569Z,3.37
2023-04-17T16:05:21.112Z,3.43
2023-04-17T16:07:49.327Z,2.83
2023-04-17T16:10:18.923Z,3.10
2023-04-17T16:12:47.224Z,3.17
2023-04-17T16:15:17.498Z,2.80
2023-04-17T16:17:48.750Z,3.07
2023-04-17T16:20:17.585Z,2.97
2023-04-17T16:22:45.698Z,3.73
2023-04-17T16:25:14.096Z,4.30
2023-04-17T16:27:42.242Z,4.13
2023-04-17T16:30:12.392Z,4.33
2023-04-17T16:32:40.501Z,3.60
2023-04-17T16:35:10.898Z,4.63
2023-04-17T16:37:39.391Z,3.97
2023-04-17T16:40:08.745Z,4.30
2023-04-17T16:42:36.788Z,4.90
2023-04-17T16:45:05.713Z,4.40
2023-04-17T16:47:33.949Z,5.50
2023-04-17T16:50:01.984Z,5.30
2023-04-17T16:52:31.615Z,4.80
2023-04-17T16:54:59.813Z,5.63
2023-04-17T16:57:27.854Z,4.53
2023-04-17T16:59:55.918Z,6.03
2023-04-17T17:02:24.378Z,6.50
2023-04-17T17:04:52.682Z,8.73
2023-04-17T17:07:20.723Z,10.23
2023-04-17T17:09:50.091Z,6.60
2023-04-17T17:12:18.106Z,5.97
2023-04-17T17:14:46.263Z,5.77
2023-04-17T17:17:14.276Z,4.83
2023-04-17T17:19:43.218Z,4.20
2023-04-17T17:22:11.220Z,5.00
2023-04-17T17:24:39.856Z,3.47
2023-04-17T17:27:09.197Z,3.50
2023-04-17T17:29:37.188Z,3.60
2023-04-17T17:32:05.791Z,5.03
2023-04-17T17:34:35.722Z,4.20
2023-04-17T17:37:03.839Z,3.40
2023-04-17T17:39:31.850Z,3.67
2023-04-17T17:42:02.914Z,4.10
2023-04-17T17:44:32.745Z,5.80
2023-04-17T17:47:01.915Z,6.03
2023-04-17T17:49:30.007Z,5.40
2023-04-17T17:51:58.077Z,4.43
2023-04-17T17:54:26.169Z,4.67
2023-04-17T17:56:54.283Z,5.37
2023-04-17T17:59:22.473Z,3.77
2023-04-17T18:01:52.247Z,3.67
2023-04-17T18:04:20.827Z,4.60
2023-04-17T18:06:49.281Z,3.20
2023-04-17T18:09:17.345Z,3.30
2023-04-17T18:11:45.568Z,3.40
2023-04-17T18:14:13.665Z,3.57
2023-04-17T18:16:42.969Z,3.60
2023-04-17T18:19:12.595Z,3.73
2023-04-17T18:21:40.890Z,4.90
2023-04-17T18:24:09.391Z,4.37
2023-04-17T18:26:37.380Z,4.13
2023-04-17T18:29:06.451Z,4.17
2023-04-17T18:31:34.528Z,4.70
2023-04-17T18:34:02.889Z,4.70
2023-04-17T18:36:32.270Z,4.80
2023-04-17T18:39:00.293Z,4.60
2023-04-17T18:41:29.312Z,4.73
2023-04-17T18:43:57.333Z,4.43
2023-04-17T18:46:27.060Z,4.27
2023-04-17T18:48:55.439Z,4.40
2023-04-17T18:51:23.539Z,4.20
2023-04-17T18:53:52.881Z,3.80
2023-04-17T18:56:20.974Z,5.50
2023-04-17T18:58:49.019Z,6.60
2023-04-17T19:01:17.171Z,6.90
2023-04-17T19:03:46.013Z,9.97
2023-04-17T19:06:14.165Z,9.40
2023-04-17T19:08:42.365Z,13.10
2023-04-17T19:11:11.768Z,11.20
2023-04-17T19:13:40.069Z,12.03
2023-04-17T19:16:08.245Z,7.67
2023-04-17T19:18:36.315Z,6.20
2023-04-17T19:21:04.329Z,6.60
2023-04-17T19:23:32.503Z,5.80
2023-04-17T19:26:00.663Z,4.60
2023-04-17T19:28:30.491Z,4.63
2023-04-17T19:30:59.261Z,4.90
2023-04-17T19:33:27.321Z,4.00
2023-04-17T19:35:58.364Z,4.63
2023-04-17T19:38:27.982Z,4.07
2023-04-17T19:41:14.702Z,4.07
2023-04-17T19:43:44.592Z,4.43
2023-04-17T19:46:13.736Z,4.50
2023-04-17T19:48:43.617Z,4.40
2023-04-17T19:51:12.476Z,4.80
2023-04-17T19:53:42.238Z,4.37
2023-04-17T19:56:10.810Z,3.77
2023-04-17T19:58:39.468Z,3.63
2023-04-17T20:01:09.056Z,3.43
2023-04-17T20:03:39.254Z,3.50
2023-04-17T20:06:08.907Z,3.80
2023-04-17T20:08:37.563Z,3.70
2023-04-17T20:11:06.375Z,2.97
2023-04-17T20:13:34.573Z,3.40
2023-04-17T20:16:02.594Z,3.30
2023-04-17T20:18:33.794Z,3.20
2023-04-17T20:21:02.266Z,2.60
2023-04-17T20:23:30.482Z,3.37
2023-04-17T20:25:58.632Z,3.63
2023-04-17T20:28:28.810Z,3.10
2023-04-17T20:30:57.327Z,3.30
2023-04-17T20:33:25.525Z,3.63
2023-04-17T20:35:55.088Z,3.73
2023-04-17T20:38:23.254Z,3.40
2023-04-17T20:40:51.327Z,3.90
2023-04-17T20:43:19.391Z,3.60
2023-04-17T20:45:48.384Z,3.60
2023-04-17T20:48:16.568Z,4.03
2023-04-17T20:50:44.769Z,3.17
2023-04-17T20:53:14.303Z,3.40
2023-04-17T20:55:42.574Z,3.33
2023-04-17T20:58:11.217Z,3.27
2023-04-17T21:00:50.608Z,3.47
2023-04-17T21:03:26.300Z,3.80
2023-04-17T21:05:54.885Z,3.63
2023-04-17T21:08:24.320Z,3.70
2023-04-17T21:10:52.594Z,3.50
2023-04-17T21:13:20.950Z,3.40
2023-04-17T21:15:49.350Z,4.20
2023-04-17T21:18:17.458Z,3.90
2023-04-17T21:20:45.890Z,3.70
2023-04-17T21:23:14.790Z,3.70
2023-04-17T21:25:44.246Z,4.07
2023-04-17T21:28:12.315Z,3.80
2023-04-17T21:30:40.331Z,4.20
2023-04-17T21:33:08.441Z,4.20
2023-04-17T21:35:37.146Z,5.00
2023-04-17T21:38:05.183Z,5.00
2023-04-17T21:40:33.743Z,4.77
2023-04-17T21:43:03.359Z,4.57
2023-04-17T21:45:32.634Z,4.60
2023-04-17T21:48:00.940Z,5.20
2023-04-17T21:50:29.149Z,4.33
2023-04-17T21:52:57.276Z,4.50
2023-04-17T21:55:25.515Z,4.60
2023-04-17T21:57:53.770Z,4.57
2023-04-17T22:00:23.564Z,4.63
2023-04-17T22:02:51.673Z,4.83
2023-04-17T22:05:20.065Z,5.00
2023-04-17T22:07:54.942Z,5.97
2023-04-17T22:10:24.678Z,11.53
2023-04-17T22:12:52.896Z,6.37
2023-04-17T22:15:20.906Z,5.83
2023-04-17T22:17:50.683Z,7.20
2023-04-17T22:20:18.917Z,5.50
2023-04-17T22:22:47.840Z,5.80
2023-04-17T22:25:15.810Z,5.80
2023-04-17T22:27:43.968Z,5.27
2023-04-17T22:30:12.462Z,5.03
2023-04-17T22:32:40.755Z,5.63
2023-04-17T22:35:10.801Z,5.13
2023-04-17T22:37:38.791Z,8.57
2023-04-17T22:40:08.359Z,6.70
2023-04-17T22:42:36.367Z,6.33
2023-04-17T22:45:04.577Z,7.57
2023-04-17T22:47:32.517Z,6.57
2023-04-17T22:50:00.520Z,5.73
2023-04-17T22:52:30.539Z,6.20
2023-04-17T22:54:58.496Z,6.50
2023-04-17T22:57:26.436Z,6.70
2023-04-17T22:59:54.541Z,6.37
2023-04-17T23:02:22.556Z,7.40
2023-04-17T23:04:50.528Z,6.27
2023-04-17T23:07:18.579Z,6.60
2023-04-17T23:09:48.437Z,6.10
2023-04-17T23:12:16.382Z,6.60
2023-04-17T23:14:45.920Z,6.70
2023-04-17T23:17:13.952Z,6.40
2023-04-17T23:19:42.177Z,6.53
2023-04-17T23:22:11.074Z,6.20
2023-04-17T23:24:39.098Z,6.70
2023-04-17T23:27:08.407Z,7.50
2023-04-17T23:29:36.346Z,6.73
2023-04-17T23:32:04.644Z,6.80
2023-04-17T23:34:32.635Z,6.70
2023-04-17T23:37:02.802Z,7.30
2023-04-17T23:39:31.092Z,6.97
2023-04-17T23:42:00.554Z,6.37
2023-04-17T23:44:30.038Z,6.50
2023-04-17T23:46:58.565Z,6.90
2023-04-17T23:49:26.691Z,7.20
2023-04-17T23:51:54.993Z,6.87
2023-04-17T23:54:23.010Z,7.20
2023-04-17T23:56:51.029Z,7.37
2023-04-17T23:59:19.157Z,6.30
